Terminal Aerodrome Forecast
Issued by NWS

Home | Current Version | Previous Version | Text Only | Print | Product List | Glossary On
Versions: 1 2 3 4 5 6 7 8 9 10 11 12 13 14 15
000
FTUS43 KOAX 231100
TAFCDR
TAF
KCDR 231120Z 2312/2412 22013G24KT P6SM BKN120
     FM231400 28020G32KT P6SM BKN090
     FM231800 30028G41KT P6SM BKN090
     FM232100 33025G35KT P6SM BKN090
     FM240100 32018KT P6SM SCT090
     FM240300 26008KT P6SM SCT090=

USA.gov is the U.S. government's official web portal to all federal, state and local government web resources and services.